createdAt,value
2023-02-20T00:00:03.182Z,78.20
2023-02-20T00:02:35.372Z,78.70
2023-02-20T00:05:04.777Z,78.60
2023-02-20T00:07:36.540Z,78.80
2023-02-20T00:10:06.060Z,79.10
2023-02-20T00:12:35.413Z,79.30
2023-02-20T00:15:05.491Z,79.40
2023-02-20T00:17:35.199Z,79.50
2023-02-20T00:20:04.477Z,79.60
2023-02-20T00:22:39.639Z,79.70
2023-02-20T00:25:08.963Z,79.70
2023-02-20T00:27:37.911Z,79.90
2023-02-20T00:30:08.042Z,79.80
2023-02-20T00:32:37.019Z,80.00
2023-02-20T00:35:06.013Z,80.20
2023-02-20T00:37:38.526Z,80.50
2023-02-20T00:40:09.293Z,80.90
2023-02-20T00:42:38.136Z,81.20
2023-02-20T00:45:08.606Z,81.20
2023-02-20T00:47:37.452Z,81.40
2023-02-20T00:50:08.522Z,81.80
2023-02-20T00:52:39.705Z,82.00
2023-02-20T00:55:09.221Z,82.30
2023-02-20T00:57:38.277Z,82.20
2023-02-20T01:00:10.986Z,82.80
2023-02-20T01:02:40.733Z,83.30
2023-02-20T01:05:09.734Z,83.60
2023-02-20T01:07:40.013Z,83.80
2023-02-20T01:10:10.894Z,83.80
2023-02-20T01:12:41.127Z,83.90
2023-02-20T01:15:11.218Z,84.00
2023-02-20T01:17:40.128Z,84.00
2023-02-20T01:20:34.542Z,83.80
2023-02-20T01:23:08.579Z,84.10
2023-02-20T01:25:37.505Z,84.10
2023-02-20T01:28:06.797Z,84.20
2023-02-20T01:30:35.634Z,84.20
2023-02-20T01:33:04.631Z,84.30
2023-02-20T01:35:33.510Z,84.60
2023-02-20T01:38:06.653Z,84.80
2023-02-20T01:40:37.323Z,84.80
2023-02-20T01:43:06.364Z,85.10
2023-02-20T01:45:37.527Z,85.10
2023-02-20T01:48:06.905Z,85.30
2023-02-20T01:50:42.060Z,85.80
2023-02-20T01:53:13.940Z,86.00
2023-02-20T01:55:49.472Z,86.30
2023-02-20T01:58:22.517Z,86.40
2023-02-20T02:00:52.575Z,86.80
2023-02-20T02:03:24.338Z,87.10
2023-02-20T02:05:59.439Z,87.30
2023-02-20T02:08:30.236Z,87.60
2023-02-20T02:11:04.144Z,87.90
2023-02-20T02:13:38.056Z,88.10
2023-02-20T02:16:18.527Z,88.10
2023-02-20T02:18:56.570Z,88.30
2023-02-20T02:22:01.092Z,88.40
2023-02-20T02:25:17.402Z,88.60
2023-02-20T02:28:08.843Z,89.10
2023-02-20T02:31:07.866Z,89.40
2023-02-20T02:34:03.904Z,90.00
2023-02-20T02:36:43.152Z,90.20
2023-02-20T02:39:22.241Z,90.30
2023-02-20T02:41:59.114Z,90.50
2023-02-20T02:44:34.376Z,90.70
2023-02-20T02:47:07.126Z,90.90
2023-02-20T02:49:55.003Z,91.00
2023-02-20T02:52:46.855Z,91.10
2023-02-20T02:55:19.256Z,91.20
2023-02-20T02:57:49.093Z,91.30
2023-02-20T03:00:22.991Z,91.50
2023-02-20T03:02:58.624Z,91.50
2023-02-20T03:05:40.524Z,91.70
2023-02-20T03:08:22.684Z,91.90
2023-02-20T03:10:54.512Z,92.00
2023-02-20T03:13:48.468Z,92.10
2023-02-20T03:16:22.535Z,92.10
2023-02-20T03:18:54.147Z,92.00
2023-02-20T03:21:25.643Z,91.80
2023-02-20T03:24:02.501Z,91.50
2023-02-20T03:26:36.387Z,91.60
2023-02-20T03:29:13.966Z,91.70
2023-02-20T03:31:48.211Z,91.80
2023-02-20T03:34:55.752Z,92.20
2023-02-20T03:37:50.376Z,92.60
2023-02-20T03:43:36.517Z,93.40
2023-02-20T03:46:14.414Z,93.70
2023-02-20T03:48:46.878Z,94.10
2023-02-20T03:54:33.691Z,94.40
2023-02-20T03:57:08.593Z,94.60
2023-02-20T03:59:42.005Z,94.80
2023-02-20T04:02:16.725Z,95.10
2023-02-20T04:04:49.848Z,95.30
2023-02-20T04:07:49.740Z,95.50
2023-02-20T04:10:23.804Z,95.70
2023-02-20T04:12:57.863Z,95.80
2023-02-20T04:15:27.560Z,95.90
2023-02-20T04:18:01.570Z,95.80
2023-02-20T04:20:31.556Z,95.90
2023-02-20T04:23:14.728Z,95.90
2023-02-20T04:25:48.481Z,96.10
2023-02-20T04:28:19.668Z,96.40
2023-02-20T04:31:02.060Z,96.40
2023-02-20T04:33:32.521Z,96.50
2023-02-20T04:36:06.186Z,96.60
2023-02-20T04:38:35.762Z,96.70
2023-02-20T04:41:07.802Z,97.00
2023-02-20T04:43:38.440Z,97.20
2023-02-20T04:46:08.146Z,97.30
2023-02-20T04:48:37.886Z,97.20
2023-02-20T04:51:07.190Z,97.10
2023-02-20T04:53:40.336Z,97.10
2023-02-20T04:56:09.703Z,97.10
2023-02-20T04:58:47.541Z,97.30
2023-02-20T05:01:21.044Z,97.70
2023-02-20T05:03:58.312Z,98.00
2023-02-20T05:06:27.401Z,98.40
2023-02-20T05:08:56.190Z,98.70
2023-02-20T05:11:25.094Z,99.00
2023-02-20T05:14:02.214Z,99.10
2023-02-20T05:16:32.266Z,99.40
2023-02-20T05:19:01.309Z,99.80
2023-02-20T05:21:48.017Z,99.90
2023-02-20T05:24:17.045Z,99.90
2023-02-20T05:26:53.506Z,99.90
2023-02-20T05:29:27.445Z,99.90
2023-02-20T05:31:57.346Z,99.90
2023-02-20T05:34:26.352Z,99.90
2023-02-20T05:36:58.623Z,99.90
2023-02-20T05:39:27.779Z,99.90
2023-02-20T05:41:58.127Z,99.90
2023-02-20T05:44:33.402Z,99.80
2023-02-20T05:47:02.671Z,99.80
2023-02-20T05:49:32.419Z,99.90
2023-02-20T05:52:04.045Z,99.90
2023-02-20T05:54:34.070Z,99.90
2023-02-20T05:57:04.096Z,99.80
2023-02-20T05:59:41.329Z,99.90
2023-02-20T06:02:10.268Z,99.90
2023-02-20T06:04:39.229Z,99.90
2023-02-20T06:07:10.739Z,99.90
2023-02-20T06:09:42.923Z,99.90
2023-02-20T06:12:14.113Z,99.90
2023-02-20T06:14:45.339Z,99.90
2023-02-20T06:17:16.319Z,99.90
2023-02-20T06:19:46.276Z,99.90
2023-02-20T06:22:17.580Z,99.90
2023-02-20T06:24:49.494Z,99.90
2023-02-20T06:27:19.507Z,99.90
2023-02-20T06:30:03.043Z,99.90
2023-02-20T06:32:32.120Z,99.90
2023-02-20T06:35:01.011Z,99.90
2023-02-20T06:37:29.811Z,99.90
2023-02-20T06:39:58.743Z,99.90
2023-02-20T06:42:27.915Z,99.90
2023-02-20T06:44:58.213Z,99.90
2023-02-20T06:47:27.089Z,99.90
2023-02-20T06:49:56.009Z,99.90
2023-02-20T06:52:24.942Z,99.90
2023-02-20T06:54:54.430Z,99.90
2023-02-20T06:57:26.337Z,99.90
2023-02-20T06:59:55.280Z,99.90
2023-02-20T07:02:25.634Z,99.90
2023-02-20T07:04:54.501Z,99.90
2023-02-20T07:07:23.371Z,99.90
2023-02-20T07:09:52.795Z,99.90
2023-02-20T07:12:26.279Z,99.90
2023-02-20T07:14:58.643Z,99.90
2023-02-20T07:17:29.326Z,99.90
2023-02-20T07:19:59.848Z,99.90
2023-02-20T07:22:28.948Z,99.90
2023-02-20T07:24:57.989Z,99.90
2023-02-20T07:27:27.096Z,99.90
2023-02-20T07:29:56.764Z,99.90
2023-02-20T07:32:25.552Z,99.90
2023-02-20T07:35:04.043Z,99.90
2023-02-20T07:37:36.312Z,99.90
2023-02-20T07:40:06.368Z,99.90
2023-02-20T07:42:35.300Z,99.90
2023-02-20T07:45:24.009Z,99.90
2023-02-20T07:47:53.267Z,99.90
2023-02-20T07:50:23.625Z,99.90
2023-02-20T07:52:52.500Z,99.90
2023-02-20T07:55:21.524Z,99.90
2023-02-20T07:57:52.106Z,99.90
2023-02-20T08:00:22.282Z,99.90
2023-02-20T08:02:51.170Z,99.90
2023-02-20T08:05:25.555Z,99.90
2023-02-20T08:07:55.163Z,99.90
2023-02-20T08:10:27.842Z,99.90
2023-02-20T08:12:57.691Z,99.90
2023-02-20T08:15:26.745Z,99.90
2023-02-20T08:17:58.667Z,99.90
2023-02-20T08:20:29.080Z,99.90
2023-02-20T08:23:01.094Z,99.90
2023-02-20T08:25:30.288Z,99.90
2023-02-20T08:27:59.876Z,99.90
2023-02-20T08:30:30.489Z,99.90
2023-02-20T08:33:19.472Z,99.90
2023-02-20T08:35:54.588Z,99.90
2023-02-20T08:38:36.224Z,99.90
2023-02-20T08:41:11.597Z,99.90
2023-02-20T08:43:43.589Z,99.90
2023-02-20T08:46:20.956Z,99.90
2023-02-20T08:48:53.929Z,99.90
2023-02-20T08:51:26.697Z,99.90
2023-02-20T08:53:55.808Z,99.90
2023-02-20T08:56:32.102Z,99.90
2023-02-20T08:59:01.825Z,99.90
2023-02-20T09:01:30.776Z,99.90
2023-02-20T09:03:59.777Z,99.90
2023-02-20T09:06:30.082Z,99.90
2023-02-20T09:08:58.988Z,99.90
2023-02-20T09:11:30.232Z,99.90
2023-02-20T09:13:59.785Z,99.90
2023-02-20T09:16:28.840Z,99.90
2023-02-20T09:19:08.839Z,99.90
2023-02-20T09:21:39.279Z,99.90
2023-02-20T09:24:09.202Z,99.90
2023-02-20T09:26:38.135Z,99.90
2023-02-20T09:29:08.401Z,99.90
2023-02-20T09:31:37.695Z,99.90
2023-02-20T09:34:07.287Z,99.90
2023-02-20T09:36:36.375Z,99.90
2023-02-20T09:39:08.365Z,99.90
2023-02-20T09:41:51.149Z,99.90
2023-02-20T09:44:27.345Z,99.90
2023-02-20T09:47:28.457Z,99.90
2023-02-20T09:50:01.514Z,99.90
2023-02-20T09:52:32.123Z,99.90
2023-02-20T09:55:12.032Z,99.90
2023-02-20T09:57:57.098Z,99.90
2023-02-20T10:00:32.445Z,99.90
2023-02-20T10:03:14.498Z,99.90
2023-02-20T10:05:45.890Z,99.90
2023-02-20T10:08:22.269Z,99.90
2023-02-20T10:10:57.729Z,99.90
2023-02-20T10:13:57.261Z,99.90
2023-02-20T10:16:37.136Z,99.90
2023-02-20T10:19:18.127Z,99.90
2023-02-20T10:22:00.945Z,99.90
2023-02-20T10:24:48.384Z,99.90
2023-02-20T10:27:30.589Z,99.90
2023-02-20T10:30:27.238Z,99.90
2023-02-20T10:33:02.973Z,99.90
2023-02-20T10:35:38.051Z,99.90
2023-02-20T10:38:13.419Z,99.90
2023-02-20T10:41:06.975Z,99.90
2023-02-20T10:43:44.485Z,99.90
2023-02-20T10:46:20.417Z,99.90
2023-02-20T10:48:50.308Z,99.90
2023-02-20T10:51:31.503Z,99.90
2023-02-20T10:54:05.985Z,99.90
2023-02-20T10:56:41.097Z,99.90
2023-02-20T10:59:19.873Z,99.90
2023-02-20T11:01:54.025Z,99.90
2023-02-20T11:04:33.914Z,99.90
2023-02-20T11:07:07.810Z,99.90
2023-02-20T11:09:37.499Z,99.90
2023-02-20T11:12:07.497Z,99.90
2023-02-20T11:14:47.459Z,99.90
2023-02-20T11:17:19.706Z,99.90
2023-02-20T11:19:49.941Z,99.90
2023-02-20T11:25:44.426Z,99.90
2023-02-20T11:28:53.903Z,99.90
2023-02-20T11:31:28.341Z,99.90
2023-02-20T11:34:00.451Z,93.50
2023-02-20T11:37:13.601Z,89.10
2023-02-20T11:39:51.239Z,87.40
2023-02-20T11:42:25.038Z,85.50
2023-02-20T11:45:15.316Z,83.30
2023-02-20T11:48:17.226Z,81.60
2023-02-20T11:50:50.726Z,81.50
2023-02-20T11:53:27.055Z,81.10
2023-02-20T11:56:12.691Z,80.30
2023-02-20T11:58:53.390Z,78.50
2023-02-20T12:01:32.479Z,77.40
2023-02-20T12:04:03.568Z,76.60
2023-02-20T12:06:48.480Z,76.40
2023-02-20T12:09:29.381Z,76.60
2023-02-20T12:12:01.440Z,77.10
2023-02-20T12:14:34.140Z,78.40
2023-02-20T12:17:11.612Z,80.60
2023-02-20T12:20:08.119Z,80.20
2023-02-20T12:22:40.886Z,79.20
2023-02-20T12:25:22.035Z,78.10
2023-02-20T12:28:05.135Z,77.10
2023-02-20T12:30:55.409Z,76.50
2023-02-20T12:33:48.819Z,76.40
2023-02-20T12:36:29.528Z,76.40
2023-02-20T12:39:15.159Z,76.50
2023-02-20T12:41:56.739Z,76.90
2023-02-20T12:44:48.619Z,77.20
2023-02-20T12:47:28.499Z,77.30
2023-02-20T12:50:13.233Z,78.00
2023-02-20T12:53:08.049Z,78.50
2023-02-20T12:56:07.343Z,78.80
2023-02-20T12:58:48.815Z,79.40
2023-02-20T13:01:30.696Z,79.80
2023-02-20T13:04:08.058Z,80.10
2023-02-20T13:06:44.774Z,80.70
2023-02-20T13:12:16.678Z,79.80
2023-02-20T13:14:59.768Z,80.00
2023-02-20T13:17:37.285Z,80.20
2023-02-20T13:20:16.868Z,80.50
2023-02-20T13:22:45.732Z,81.40
2023-02-20T13:25:39.596Z,81.50
2023-02-20T13:28:44.805Z,81.90
2023-02-20T13:31:20.444Z,82.00
2023-02-20T13:33:53.688Z,82.00
2023-02-20T13:36:45.668Z,82.30
2023-02-20T13:39:44.761Z,82.80
2023-02-20T13:42:36.881Z,83.40
2023-02-20T13:45:41.719Z,84.00
2023-02-20T13:48:35.270Z,84.50
2023-02-20T13:51:48.989Z,85.00
2023-02-20T13:54:35.477Z,85.60
2023-02-20T13:57:18.442Z,86.20
2023-02-20T13:59:50.766Z,87.30
2023-02-20T14:02:25.000Z,87.00
2023-02-20T14:04:59.794Z,87.80
2023-02-20T14:07:35.208Z,89.00
2023-02-20T14:10:07.761Z,90.40
2023-02-20T14:12:37.639Z,91.10
2023-02-20T14:15:09.130Z,91.30
2023-02-20T14:17:43.142Z,90.70
2023-02-20T14:20:23.353Z,89.40
2023-02-20T14:23:08.420Z,88.00
2023-02-20T14:25:37.454Z,87.80
2023-02-20T14:28:14.217Z,86.70
2023-02-20T14:30:43.696Z,86.30
2023-02-20T14:33:26.030Z,85.80
2023-02-20T14:36:14.664Z,85.60
2023-02-20T14:39:01.870Z,85.60
2023-02-20T14:41:32.309Z,86.10
2023-02-20T14:44:03.175Z,87.00
2023-02-20T14:46:34.417Z,86.10
2023-02-20T14:49:12.693Z,86.10
2023-02-20T14:51:42.172Z,86.10
2023-02-20T14:54:20.175Z,86.00
2023-02-20T14:57:08.624Z,85.60
2023-02-20T14:59:40.012Z,85.60
2023-02-20T15:02:31.327Z,85.70
2023-02-20T15:05:08.203Z,85.80
2023-02-20T15:07:40.159Z,85.70
2023-02-20T15:10:35.415Z,85.50
2023-02-20T15:13:09.959Z,85.40
2023-02-20T15:15:40.722Z,85.50
2023-02-20T15:18:12.723Z,85.70
2023-02-20T15:20:44.326Z,84.80
2023-02-20T15:23:25.972Z,85.00
2023-02-20T15:25:55.212Z,85.00
2023-02-20T15:28:29.634Z,84.70
2023-02-20T15:31:25.255Z,84.60
2023-02-20T15:33:55.760Z,84.90
2023-02-20T15:36:27.839Z,85.10
2023-02-20T15:38:57.913Z,85.30
2023-02-20T15:41:27.080Z,85.70
2023-02-20T15:43:56.057Z,85.90
2023-02-20T15:46:24.990Z,86.10
2023-02-20T15:49:20.927Z,86.10
2023-02-20T15:51:56.215Z,86.20
2023-02-20T15:54:28.867Z,86.50
2023-02-20T15:56:57.753Z,86.90
2023-02-20T15:59:26.615Z,87.00
2023-02-20T16:01:55.562Z,87.20
2023-02-20T16:04:26.478Z,87.50
2023-02-20T16:06:56.849Z,87.60
2023-02-20T16:09:25.838Z,88.00
2023-02-20T16:11:55.766Z,88.60
2023-02-20T16:14:24.813Z,88.80
2023-02-20T16:17:01.053Z,89.20
2023-02-20T16:19:42.117Z,89.70
2023-02-20T16:22:13.216Z,90.10
2023-02-20T16:24:47.940Z,90.30
2023-02-20T16:27:24.901Z,90.30
2023-02-20T16:29:55.455Z,90.40
2023-02-20T16:32:36.776Z,90.40
2023-02-20T16:35:07.322Z,90.30
2023-02-20T16:37:38.818Z,90.20
2023-02-20T16:40:17.908Z,90.30
2023-02-20T16:42:49.560Z,90.30
2023-02-20T16:45:23.886Z,90.50
2023-02-20T16:47:59.716Z,90.70
2023-02-20T16:50:35.964Z,91.00
2023-02-20T16:53:09.238Z,91.30
2023-02-20T16:55:39.919Z,91.70
2023-02-20T16:58:10.065Z,91.90
2023-02-20T17:00:55.095Z,92.10
2023-02-20T17:03:32.439Z,92.20
2023-02-20T17:06:03.020Z,92.40
2023-02-20T17:08:36.657Z,92.60
2023-02-20T17:11:07.328Z,92.80
2023-02-20T17:13:36.863Z,92.90
2023-02-20T17:16:06.111Z,93.10
2023-02-20T17:18:37.253Z,93.30
2023-02-20T17:21:07.174Z,93.40
2023-02-20T17:23:41.541Z,93.50
2023-02-20T17:26:17.468Z,93.60
2023-02-20T17:28:48.379Z,93.70
2023-02-20T17:31:21.993Z,93.80
2023-02-20T17:33:52.081Z,93.90
2023-02-20T17:36:22.089Z,93.90
2023-02-20T17:38:52.515Z,94.00
2023-02-20T17:41:21.616Z,94.10
2023-02-20T17:43:54.174Z,94.10
2023-02-20T17:46:24.498Z,94.20
2023-02-20T17:48:57.333Z,94.20
2023-02-20T17:51:27.489Z,94.30
2023-02-20T17:53:58.925Z,94.30
2023-02-20T17:56:29.345Z,94.40
2023-02-20T17:58:58.289Z,94.50
2023-02-20T18:01:28.054Z,94.60
2023-02-20T18:04:04.925Z,94.60
2023-02-20T18:06:36.662Z,94.60
2023-02-20T18:09:12.808Z,94.70
2023-02-20T18:11:43.117Z,95.10
2023-02-20T18:14:12.824Z,95.10
2023-02-20T18:16:43.310Z,95.20
2023-02-20T18:19:18.220Z,95.20
2023-02-20T18:22:06.672Z,95.30
2023-02-20T18:24:42.550Z,95.30
2023-02-20T18:27:13.079Z,95.30
2023-02-20T18:29:49.592Z,95.40
2023-02-20T18:32:18.670Z,95.50
2023-02-20T18:34:52.967Z,95.60
2023-02-20T18:37:35.670Z,95.70
2023-02-20T18:40:09.885Z,95.80
2023-02-20T18:42:54.025Z,95.90
2023-02-20T18:45:24.529Z,96.00
2023-02-20T18:47:59.164Z,96.20
2023-02-20T18:50:30.729Z,96.40
2023-02-20T18:52:59.804Z,96.50
2023-02-20T18:55:32.128Z,96.70
2023-02-20T18:58:04.216Z,96.90
2023-02-20T19:00:37.094Z,97.00
2023-02-20T19:03:10.108Z,97.20
2023-02-20T19:05:45.004Z,97.20
2023-02-20T19:08:15.210Z,97.10
2023-02-20T19:10:45.742Z,97.10
2023-02-20T19:13:14.661Z,97.10
2023-02-20T19:15:43.488Z,97.10
2023-02-20T19:18:13.405Z,97.30
2023-02-20T19:20:42.345Z,97.30
2023-02-20T19:23:11.162Z,97.40
2023-02-20T19:25:41.742Z,97.50
2023-02-20T19:28:13.721Z,97.60
2023-02-20T19:30:43.083Z,97.60
2023-02-20T19:33:14.249Z,97.60
2023-02-20T19:35:43.208Z,97.70
2023-02-20T19:38:12.897Z,97.80
2023-02-20T19:40:41.797Z,97.90
2023-02-20T19:43:14.332Z,98.00
2023-02-20T19:45:45.158Z,98.30
2023-02-20T19:48:14.143Z,98.60
2023-02-20T19:50:43.105Z,99.00
2023-02-20T19:53:11.982Z,99.30
2023-02-20T19:55:41.378Z,99.40
2023-02-20T19:58:10.243Z,99.40
2023-02-20T20:00:39.545Z,99.40
2023-02-20T20:03:11.284Z,99.40
2023-02-20T20:05:40.325Z,99.40
2023-02-20T20:08:12.680Z,99.40
2023-02-20T20:10:43.260Z,99.40
2023-02-20T20:13:12.427Z,99.50
2023-02-20T20:15:41.615Z,99.60
2023-02-20T20:18:13.371Z,99.60
2023-02-20T20:20:42.535Z,99.80
2023-02-20T20:23:11.462Z,99.90
2023-02-20T20:25:55.206Z,99.90
2023-02-20T20:28:31.174Z,99.90
2023-02-20T20:31:02.589Z,99.90
2023-02-20T20:33:51.995Z,99.90
2023-02-20T20:36:22.412Z,99.90
2023-02-20T20:38:56.395Z,99.90
2023-02-20T20:41:44.450Z,99.90
2023-02-20T20:44:17.014Z,99.90
2023-02-20T20:47:02.149Z,99.90
2023-02-20T20:52:53.124Z,99.90
2023-02-20T20:55:22.026Z,99.90
2023-02-20T20:57:53.098Z,99.90
2023-02-20T21:00:27.301Z,99.90
2023-02-20T21:02:57.838Z,99.90
2023-02-20T21:05:37.175Z,99.90
2023-02-20T21:08:26.066Z,99.90
2023-02-20T21:10:59.648Z,99.90
2023-02-20T21:13:34.304Z,99.90
2023-02-20T21:16:03.517Z,99.90
2023-02-20T21:18:34.017Z,99.90
2023-02-20T21:21:04.497Z,99.90
2023-02-20T21:23:33.829Z,99.90
2023-02-20T21:26:03.132Z,99.90
2023-02-20T21:28:32.037Z,99.90
2023-02-20T21:31:01.037Z,99.90
2023-02-20T21:33:32.547Z,99.90
2023-02-20T21:36:05.182Z,99.90
2023-02-20T21:38:36.216Z,99.90
2023-02-20T21:41:05.899Z,99.90
2023-02-20T21:43:52.467Z,99.90
2023-02-20T21:46:21.933Z,99.90
2023-02-20T21:48:54.751Z,99.90
2023-02-20T21:51:24.014Z,99.90
2023-02-20T21:53:54.409Z,99.90
2023-02-20T21:56:23.393Z,99.90
2023-02-20T21:59:05.740Z,99.90
2023-02-20T22:01:52.776Z,99.90
2023-02-20T22:04:21.391Z,99.90
2023-02-20T22:07:08.398Z,99.90
2023-02-20T22:09:56.176Z,99.90
2023-02-20T22:12:43.343Z,99.90
2023-02-20T22:15:31.782Z,99.90
2023-02-20T22:18:18.037Z,99.90
2023-02-20T22:21:05.259Z,99.90
2023-02-20T22:23:51.658Z,99.90
2023-02-20T22:26:39.539Z,99.90
2023-02-20T22:29:28.928Z,99.90
2023-02-20T22:32:14.968Z,99.90
2023-02-20T22:35:10.757Z,99.90
2023-02-20T22:37:58.082Z,99.90
2023-02-20T22:40:44.487Z,99.90
2023-02-20T22:43:32.339Z,99.90
2023-02-20T22:46:18.754Z,99.90
2023-02-20T22:49:05.003Z,99.90
2023-02-20T22:51:51.400Z,99.90
2023-02-20T22:54:41.145Z,99.90
2023-02-20T22:57:27.929Z,99.90
2023-02-20T23:00:16.721Z,99.90
2023-02-20T23:03:03.099Z,99.90
2023-02-20T23:05:49.088Z,99.90
2023-02-20T23:08:53.957Z,99.90
2023-02-20T23:11:40.329Z,99.90
2023-02-20T23:14:26.753Z,99.90
2023-02-20T23:17:18.747Z,99.90
2023-02-20T23:20:09.809Z,99.90
2023-02-20T23:22:56.125Z,99.90
2023-02-20T23:25:42.471Z,99.90
2023-02-20T23:28:37.033Z,99.90
2023-02-20T23:31:24.012Z,99.90
2023-02-20T23:34:11.404Z,99.90
2023-02-20T23:36:57.799Z,99.90
2023-02-20T23:39:43.882Z,99.90
2023-02-20T23:42:29.871Z,99.90
2023-02-20T23:45:16.149Z,99.90
2023-02-20T23:48:02.206Z,99.90
2023-02-20T23:50:49.610Z,99.90
2023-02-20T23:53:36.054Z,99.90
2023-02-20T23:56:23.710Z,99.90
2023-02-20T23:59:09.854Z,99.90
